sensor_id;sensor_type;location;lat;lon;timestamp;temperature;humidity
72952;HTU21D;61102;51.956;5.878;2023-04-06T00:00:32;7.93;44.77
72952;HTU21D;61102;51.956;5.878;2023-04-06T00:02:58;7.93;44.80
72952;HTU21D;61102;51.956;5.878;2023-04-06T00:05:27;7.93;44.82
72952;HTU21D;61102;51.956;5.878;2023-04-06T00:08:02;7.89;45.09
72952;HTU21D;61102;51.956;5.878;2023-04-06T00:10:31;7.82;45.11
72952;HTU21D;61102;51.956;5.878;2023-04-06T00:12:58;7.77;45.10
72952;HTU21D;61102;51.956;5.878;2023-04-06T00:15:25;7.73;45.09
72952;HTU21D;61102;51.956;5.878;2023-04-06T00:17:51;7.70;45.11
72952;HTU21D;61102;51.956;5.878;2023-04-06T00:20:20;7.65;45.29
72952;HTU21D;61102;51.956;5.878;2023-04-06T00:22:46;7.67;45.19
72952;HTU21D;61102;51.956;5.878;2023-04-06T00:25:12;7.68;45.14
72952;HTU21D;61102;51.956;5.878;2023-04-06T00:27:41;7.67;45.15
72952;HTU21D;61102;51.956;5.878;2023-04-06T00:30:08;7.63;45.17
72952;HTU21D;61102;51.956;5.878;2023-04-06T00:32:35;7.61;45.31
72952;HTU21D;61102;51.956;5.878;2023-04-06T00:35:03;7.62;45.28
72952;HTU21D;61102;51.956;5.878;2023-04-06T00:37:29;7.62;45.29
72952;HTU21D;61102;51.956;5.878;2023-04-06T00:39:55;7.61;45.39
72952;HTU21D;61102;51.956;5.878;2023-04-06T00:42:22;7.57;45.47
72952;HTU21D;61102;51.956;5.878;2023-04-06T00:44:56;7.53;45.54
72952;HTU21D;61102;51.956;5.878;2023-04-06T00:47:23;7.50;45.47
72952;HTU21D;61102;51.956;5.878;2023-04-06T00:49:51;7.48;45.54
72952;HTU21D;61102;51.956;5.878;2023-04-06T00:52:18;7.49;45.54
72952;HTU21D;61102;51.956;5.878;2023-04-06T00:54:46;7.47;45.57
72952;HTU21D;61102;51.956;5.878;2023-04-06T00:57:14;7.44;45.62
72952;HTU21D;61102;51.956;5.878;2023-04-06T00:59:42;7.42;45.70
72952;HTU21D;61102;51.956;5.878;2023-04-06T01:02:11;7.40;45.77
72952;HTU21D;61102;51.956;5.878;2023-04-06T01:04:44;7.39;45.80
72952;HTU21D;61102;51.956;5.878;2023-04-06T01:07:19;7.40;45.80
72952;HTU21D;61102;51.956;5.878;2023-04-06T01:10:00;7.37;45.84
72952;HTU21D;61102;51.956;5.878;2023-04-06T01:12:29;7.32;45.94
72952;HTU21D;61102;51.956;5.878;2023-04-06T01:14:56;7.34;45.93
72952;HTU21D;61102;51.956;5.878;2023-04-06T01:17:22;7.34;46.00
72952;HTU21D;61102;51.956;5.878;2023-04-06T01:19:50;7.29;46.12
72952;HTU21D;61102;51.956;5.878;2023-04-06T01:22:25;7.31;46.07
72952;HTU21D;61102;51.956;5.878;2023-04-06T01:24:58;7.25;46.19
72952;HTU21D;61102;51.956;5.878;2023-04-06T01:27:32;7.22;46.26
72952;HTU21D;61102;51.956;5.878;2023-04-06T01:30:01;7.20;46.31
72952;HTU21D;61102;51.956;5.878;2023-04-06T01:32:47;7.20;46.26
72952;HTU21D;61102;51.956;5.878;2023-04-06T01:35:18;7.18;46.36
72952;HTU21D;61102;51.956;5.878;2023-04-06T01:37:56;7.18;46.26
72952;HTU21D;61102;51.956;5.878;2023-04-06T01:40:29;7.18;46.29
72952;HTU21D;61102;51.956;5.878;2023-04-06T01:42:55;7.17;46.26
72952;HTU21D;61102;51.956;5.878;2023-04-06T01:45:30;7.13;46.33
72952;HTU21D;61102;51.956;5.878;2023-04-06T01:48:02;7.11;46.31
72952;HTU21D;61102;51.956;5.878;2023-04-06T01:50:29;7.09;46.38
72952;HTU21D;61102;51.956;5.878;2023-04-06T01:52:55;7.08;46.38
72952;HTU21D;61102;51.956;5.878;2023-04-06T01:55:23;7.08;46.38
72952;HTU21D;61102;51.956;5.878;2023-04-06T01:58:25;7.09;46.33
72952;HTU21D;61102;51.956;5.878;2023-04-06T02:00:51;7.03;46.47
72952;HTU21D;61102;51.956;5.878;2023-04-06T02:03:19;6.97;46.69
72952;HTU21D;61102;51.956;5.878;2023-04-06T02:05:46;6.98;46.64
72952;HTU21D;61102;51.956;5.878;2023-04-06T02:08:22;6.98;46.63
72952;HTU21D;61102;51.956;5.878;2023-04-06T02:10:49;7.00;46.63
72952;HTU21D;61102;51.956;5.878;2023-04-06T02:13:56;7.04;46.79
72952;HTU21D;61102;51.956;5.878;2023-04-06T02:16:31;7.03;46.70
72952;HTU21D;61102;51.956;5.878;2023-04-06T02:18:58;7.03;46.62
72952;HTU21D;61102;51.956;5.878;2023-04-06T02:21:24;7.05;46.71
72952;HTU21D;61102;51.956;5.878;2023-04-06T02:23:50;7.09;46.67
72952;HTU21D;61102;51.956;5.878;2023-04-06T02:26:17;7.08;46.69
72952;HTU21D;61102;51.956;5.878;2023-04-06T02:28:43;7.09;46.73
72952;HTU21D;61102;51.956;5.878;2023-04-06T02:31:09;7.12;46.77
72952;HTU21D;61102;51.956;5.878;2023-04-06T02:33:40;7.13;46.96
72952;HTU21D;61102;51.956;5.878;2023-04-06T02:36:07;7.16;46.74
72952;HTU21D;61102;51.956;5.878;2023-04-06T02:38:35;7.17;46.79
72952;HTU21D;61102;51.956;5.878;2023-04-06T02:41:02;7.18;46.80
72952;HTU21D;61102;51.956;5.878;2023-04-06T02:43:29;7.20;46.83
72952;HTU21D;61102;51.956;5.878;2023-04-06T02:46:04;7.25;46.79
72952;HTU21D;61102;51.956;5.878;2023-04-06T02:48:34;7.27;46.80
72952;HTU21D;61102;51.956;5.878;2023-04-06T02:51:03;7.29;46.88
72952;HTU21D;61102;51.956;5.878;2023-04-06T02:53:38;7.32;47.07
72952;HTU21D;61102;51.956;5.878;2023-04-06T02:56:05;7.32;46.96
72952;HTU21D;61102;51.956;5.878;2023-04-06T02:58:43;7.35;46.89
72952;HTU21D;61102;51.956;5.878;2023-04-06T03:01:09;7.38;46.93
72952;HTU21D;61102;51.956;5.878;2023-04-06T03:03:36;7.41;46.95
72952;HTU21D;61102;51.956;5.878;2023-04-06T03:06:06;7.44;46.93
72952;HTU21D;61102;51.956;5.878;2023-04-06T03:08:33;7.49;46.94
72952;HTU21D;61102;51.956;5.878;2023-04-06T03:10:59;7.48;47.03
72952;HTU21D;61102;51.956;5.878;2023-04-06T03:13:36;7.53;46.96
72952;HTU21D;61102;51.956;5.878;2023-04-06T03:16:05;7.53;46.99
72952;HTU21D;61102;51.956;5.878;2023-04-06T03:18:35;7.53;47.09
72952;HTU21D;61102;51.956;5.878;2023-04-06T03:21:01;7.57;46.90
72952;HTU21D;61102;51.956;5.878;2023-04-06T03:23:35;7.57;46.96
72952;HTU21D;61102;51.956;5.878;2023-04-06T03:26:02;7.57;47.02
72952;HTU21D;61102;51.956;5.878;2023-04-06T03:28:29;7.62;46.95
72952;HTU21D;61102;51.956;5.878;2023-04-06T03:30:58;7.64;46.90
72952;HTU21D;61102;51.956;5.878;2023-04-06T03:33:43;7.67;46.87
72952;HTU21D;61102;51.956;5.878;2023-04-06T03:36:14;7.65;46.91
72952;HTU21D;61102;51.956;5.878;2023-04-06T03:38:42;7.65;46.93
72952;HTU21D;61102;51.956;5.878;2023-04-06T03:41:12;7.69;46.90
72952;HTU21D;61102;51.956;5.878;2023-04-06T03:43:40;7.73;46.94
72952;HTU21D;61102;51.956;5.878;2023-04-06T03:46:07;7.77;46.94
72952;HTU21D;61102;51.956;5.878;2023-04-06T03:48:33;7.81;46.86
72952;HTU21D;61102;51.956;5.878;2023-04-06T03:51:03;7.83;46.88
72952;HTU21D;61102;51.956;5.878;2023-04-06T03:53:29;7.86;46.76
72952;HTU21D;61102;51.956;5.878;2023-04-06T03:55:56;7.87;46.70
72952;HTU21D;61102;51.956;5.878;2023-04-06T03:58:22;7.91;46.53
72952;HTU21D;61102;51.956;5.878;2023-04-06T04:00:48;7.93;46.44
72952;HTU21D;61102;51.956;5.878;2023-04-06T04:03:14;7.98;46.37
72952;HTU21D;61102;51.956;5.878;2023-04-06T04:05:42;8.03;46.35
72952;HTU21D;61102;51.956;5.878;2023-04-06T04:08:09;8.04;46.28
72952;HTU21D;61102;51.956;5.878;2023-04-06T04:10:37;8.07;46.22
72952;HTU21D;61102;51.956;5.878;2023-04-06T04:13:03;8.09;46.19
72952;HTU21D;61102;51.956;5.878;2023-04-06T04:15:29;8.15;46.15
72952;HTU21D;61102;51.956;5.878;2023-04-06T04:17:55;8.16;46.07
72952;HTU21D;61102;51.956;5.878;2023-04-06T04:20:23;8.15;46.22
72952;HTU21D;61102;51.956;5.878;2023-04-06T04:22:50;8.15;46.27
72952;HTU21D;61102;51.956;5.878;2023-04-06T04:25:18;8.19;46.19
72952;HTU21D;61102;51.956;5.878;2023-04-06T04:27:47;8.23;46.06
72952;HTU21D;61102;51.956;5.878;2023-04-06T04:30:14;8.26;46.04
72952;HTU21D;61102;51.956;5.878;2023-04-06T04:32:41;8.26;46.06
72952;HTU21D;61102;51.956;5.878;2023-04-06T04:35:09;8.28;46.09
72952;HTU21D;61102;51.956;5.878;2023-04-06T04:37:41;8.28;46.15
72952;HTU21D;61102;51.956;5.878;2023-04-06T04:40:08;8.30;46.09
72952;HTU21D;61102;51.956;5.878;2023-04-06T04:42:45;8.31;46.06
72952;HTU21D;61102;51.956;5.878;2023-04-06T04:45:18;8.31;46.15
72952;HTU21D;61102;51.956;5.878;2023-04-06T04:47:44;8.31;46.10
72952;HTU21D;61102;51.956;5.878;2023-04-06T04:50:13;8.31;46.09
72952;HTU21D;61102;51.956;5.878;2023-04-06T04:52:42;8.32;46.08
72952;HTU21D;61102;51.956;5.878;2023-04-06T04:55:20;8.32;46.09
72952;HTU21D;61102;51.956;5.878;2023-04-06T04:57:50;8.34;45.97
72952;HTU21D;61102;51.956;5.878;2023-04-06T05:00:20;8.34;45.94
72952;HTU21D;61102;51.956;5.878;2023-04-06T05:02:47;8.34;45.92
72952;HTU21D;61102;51.956;5.878;2023-04-06T05:05:17;8.34;45.89
72952;HTU21D;61102;51.956;5.878;2023-04-06T05:07:43;8.35;45.87
72952;HTU21D;61102;51.956;5.878;2023-04-06T05:10:17;8.36;45.82
72952;HTU21D;61102;51.956;5.878;2023-04-06T05:12:52;8.36;45.77
72952;HTU21D;61102;51.956;5.878;2023-04-06T05:15:19;8.36;45.88
72952;HTU21D;61102;51.956;5.878;2023-04-06T05:17:48;8.37;45.83
72952;HTU21D;61102;51.956;5.878;2023-04-06T05:20:21;8.36;45.90
72952;HTU21D;61102;51.956;5.878;2023-04-06T05:22:49;8.37;45.83
72952;HTU21D;61102;51.956;5.878;2023-04-06T05:25:16;8.39;45.80
72952;HTU21D;61102;51.956;5.878;2023-04-06T05:27:43;8.43;45.80
72952;HTU21D;61102;51.956;5.878;2023-04-06T05:30:25;8.50;45.70
72952;HTU21D;61102;51.956;5.878;2023-04-06T05:32:52;8.53;45.60
72952;HTU21D;61102;51.956;5.878;2023-04-06T05:35:20;8.61;45.49
72952;HTU21D;61102;51.956;5.878;2023-04-06T05:37:50;8.70;45.36
72952;HTU21D;61102;51.956;5.878;2023-04-06T05:40:18;8.77;45.26
72952;HTU21D;61102;51.956;5.878;2023-04-06T05:42:44;8.86;45.14
72952;HTU21D;61102;51.956;5.878;2023-04-06T05:45:11;8.96;45.03
72952;HTU21D;61102;51.956;5.878;2023-04-06T05:47:44;9.07;44.89
72952;HTU21D;61102;51.956;5.878;2023-04-06T05:50:20;9.16;44.77
72952;HTU21D;61102;51.956;5.878;2023-04-06T05:52:46;9.21;44.74
72952;HTU21D;61102;51.956;5.878;2023-04-06T05:55:14;9.21;44.75
72952;HTU21D;61102;51.956;5.878;2023-04-06T05:57:43;9.23;44.74
72952;HTU21D;61102;51.956;5.878;2023-04-06T06:00:12;9.23;44.80
72952;HTU21D;61102;51.956;5.878;2023-04-06T06:02:40;9.26;44.69
72952;HTU21D;61102;51.956;5.878;2023-04-06T06:05:11;9.30;44.56
72952;HTU21D;61102;51.956;5.878;2023-04-06T06:07:39;9.35;44.48
72952;HTU21D;61102;51.956;5.878;2023-04-06T06:10:06;9.42;44.42
72952;HTU21D;61102;51.956;5.878;2023-04-06T06:12:35;9.55;44.25
72952;HTU21D;61102;51.956;5.878;2023-04-06T06:15:02;9.70;44.09
72952;HTU21D;61102;51.956;5.878;2023-04-06T06:17:32;9.91;43.84
72952;HTU21D;61102;51.956;5.878;2023-04-06T06:19:59;10.05;43.61
72952;HTU21D;61102;51.956;5.878;2023-04-06T06:22:26;10.57;42.61
72952;HTU21D;61102;51.956;5.878;2023-04-06T06:24:53;10.28;43.13
72952;HTU21D;61102;51.956;5.878;2023-04-06T06:27:20;10.28;43.13
72952;HTU21D;61102;51.956;5.878;2023-04-06T06:29:47;10.33;43.19
72952;HTU21D;61102;51.956;5.878;2023-04-06T06:32:13;10.41;43.16
72952;HTU21D;61102;51.956;5.878;2023-04-06T06:34:40;10.97;42.13
72952;HTU21D;61102;51.956;5.878;2023-04-06T06:37:08;10.73;42.44
72952;HTU21D;61102;51.956;5.878;2023-04-06T06:39:37;10.82;42.51
72952;HTU21D;61102;51.956;5.878;2023-04-06T06:42:03;10.90;42.34
72952;HTU21D;61102;51.956;5.878;2023-04-06T06:44:47;11.08;42.22
72952;HTU21D;61102;51.956;5.878;2023-04-06T06:47:13;11.25;42.09
72952;HTU21D;61102;51.956;5.878;2023-04-06T06:49:39;11.43;41.87
72952;HTU21D;61102;51.956;5.878;2023-04-06T06:52:06;11.57;41.61
72952;HTU21D;61102;51.956;5.878;2023-04-06T06:54:32;11.68;41.26
72952;HTU21D;61102;51.956;5.878;2023-04-06T06:56:58;11.79;41.11
72952;HTU21D;61102;51.956;5.878;2023-04-06T06:59:24;11.93;40.89
72952;HTU21D;61102;51.956;5.878;2023-04-06T07:01:52;12.01;40.75
72952;HTU21D;61102;51.956;5.878;2023-04-06T07:04:19;12.04;40.74
72952;HTU21D;61102;51.956;5.878;2023-04-06T07:06:45;12.02;40.55
72952;HTU21D;61102;51.956;5.878;2023-04-06T07:09:11;12.03;40.50
72952;HTU21D;61102;51.956;5.878;2023-04-06T07:11:37;12.05;40.54
72952;HTU21D;61102;51.956;5.878;2023-04-06T07:14:05;12.10;40.55
72952;HTU21D;61102;51.956;5.878;2023-04-06T07:16:32;12.15;40.64
72952;HTU21D;61102;51.956;5.878;2023-04-06T07:18:58;12.22;40.53
72952;HTU21D;61102;51.956;5.878;2023-04-06T07:21:24;12.26;40.32
72952;HTU21D;61102;51.956;5.878;2023-04-06T07:23:51;12.33;40.22
72952;HTU21D;61102;51.956;5.878;2023-04-06T07:26:17;12.38;39.88
72952;HTU21D;61102;51.956;5.878;2023-04-06T07:28:43;12.45;39.61
72952;HTU21D;61102;51.956;5.878;2023-04-06T07:31:12;12.49;39.49
72952;HTU21D;61102;51.956;5.878;2023-04-06T07:33:38;12.62;39.38
72952;HTU21D;61102;51.956;5.878;2023-04-06T07:36:04;12.70;38.78
72952;HTU21D;61102;51.956;5.878;2023-04-06T07:38:30;12.71;38.65
72952;HTU21D;61102;51.956;5.878;2023-04-06T07:40:57;12.76;38.60
72952;HTU21D;61102;51.956;5.878;2023-04-06T07:43:25;12.82;38.26
72952;HTU21D;61102;51.956;5.878;2023-04-06T07:45:52;12.88;38.07
72952;HTU21D;61102;51.956;5.878;2023-04-06T07:48:19;12.94;38.13
72952;HTU21D;61102;51.956;5.878;2023-04-06T07:50:46;13.01;38.24
72952;HTU21D;61102;51.956;5.878;2023-04-06T07:53:12;13.05;38.17
72952;HTU21D;61102;51.956;5.878;2023-04-06T07:55:39;13.04;38.08
72952;HTU21D;61102;51.956;5.878;2023-04-06T07:58:05;13.04;38.22
72952;HTU21D;61102;51.956;5.878;2023-04-06T08:00:31;13.03;38.17
72952;HTU21D;61102;51.956;5.878;2023-04-06T08:02:57;13.09;38.21
72952;HTU21D;61102;51.956;5.878;2023-04-06T08:05:23;13.15;37.92
72952;HTU21D;61102;51.956;5.878;2023-04-06T08:07:49;13.19;37.73
72952;HTU21D;61102;51.956;5.878;2023-04-06T08:10:15;13.22;37.77
72952;HTU21D;61102;51.956;5.878;2023-04-06T08:12:41;13.33;37.75
72952;HTU21D;61102;51.956;5.878;2023-04-06T08:15:08;13.40;37.56
72952;HTU21D;61102;51.956;5.878;2023-04-06T08:17:36;13.45;37.66
72952;HTU21D;61102;51.956;5.878;2023-04-06T08:20:02;13.56;37.59
72952;HTU21D;61102;51.956;5.878;2023-04-06T08:22:30;13.61;37.42
72952;HTU21D;61102;51.956;5.878;2023-04-06T08:24:56;13.68;37.28
72952;HTU21D;61102;51.956;5.878;2023-04-06T08:27:22;13.78;37.23
72952;HTU21D;61102;51.956;5.878;2023-04-06T08:29:49;13.81;37.13
72952;HTU21D;61102;51.956;5.878;2023-04-06T08:32:16;13.84;36.82
72952;HTU21D;61102;51.956;5.878;2023-04-06T08:34:42;13.85;36.69
72952;HTU21D;61102;51.956;5.878;2023-04-06T08:37:09;13.90;36.69
72952;HTU21D;61102;51.956;5.878;2023-04-06T08:39:35;13.91;36.60
72952;HTU21D;61102;51.956;5.878;2023-04-06T08:42:01;13.89;36.56
72952;HTU21D;61102;51.956;5.878;2023-04-06T08:44:32;13.86;36.91
72952;HTU21D;61102;51.956;5.878;2023-04-06T08:47:04;14.01;37.01
72952;HTU21D;61102;51.956;5.878;2023-04-06T08:49:33;14.15;36.76
72952;HTU21D;61102;51.956;5.878;2023-04-06T08:52:00;14.30;36.68
72952;HTU21D;61102;51.956;5.878;2023-04-06T08:54:27;14.41;36.47
72952;HTU21D;61102;51.956;5.878;2023-04-06T08:56:53;14.52;36.59
72952;HTU21D;61102;51.956;5.878;2023-04-06T08:59:19;14.63;36.59
72952;HTU21D;61102;51.956;5.878;2023-04-06T09:01:46;14.67;36.55
72952;HTU21D;61102;51.956;5.878;2023-04-06T09:04:14;14.69;36.61
72952;HTU21D;61102;51.956;5.878;2023-04-06T09:06:40;14.83;36.54
72952;HTU21D;61102;51.956;5.878;2023-04-06T09:09:07;14.99;36.19
72952;HTU21D;61102;51.956;5.878;2023-04-06T09:11:50;15.17;36.34
72952;HTU21D;61102;51.956;5.878;2023-04-06T09:14:32;15.29;35.98
72952;HTU21D;61102;51.956;5.878;2023-04-06T09:16:58;15.44;35.68
72952;HTU21D;61102;51.956;5.878;2023-04-06T09:19:24;15.59;35.43
72952;HTU21D;61102;51.956;5.878;2023-04-06T09:22:04;15.61;35.31
72952;HTU21D;61102;51.956;5.878;2023-04-06T09:25:00;15.84;34.92
72952;HTU21D;61102;51.956;5.878;2023-04-06T09:27:34;15.83;35.12
72952;HTU21D;61102;51.956;5.878;2023-04-06T09:32:30;15.83;34.15
72952;HTU21D;61102;51.956;5.878;2023-04-06T09:35:09;15.78;34.38
72952;HTU21D;61102;51.956;5.878;2023-04-06T09:37:36;15.81;34.37
72952;HTU21D;61102;51.956;5.878;2023-04-06T09:40:04;15.92;34.58
72952;HTU21D;61102;51.956;5.878;2023-04-06T09:42:32;16.11;34.50
72952;HTU21D;61102;51.956;5.878;2023-04-06T09:44:58;16.33;34.66
72952;HTU21D;61102;51.956;5.878;2023-04-06T09:47:24;16.44;34.12
72952;HTU21D;61102;51.956;5.878;2023-04-06T09:49:56;16.41;33.85
72952;HTU21D;61102;51.956;5.878;2023-04-06T09:52:31;16.39;33.92
72952;HTU21D;61102;51.956;5.878;2023-04-06T09:55:04;16.42;33.96
72952;HTU21D;61102;51.956;5.878;2023-04-06T10:00:13;16.49;34.31
72952;HTU21D;61102;51.956;5.878;2023-04-06T10:05:58;16.60;34.20
72952;HTU21D;61102;51.956;5.878;2023-04-06T10:08:27;16.58;34.00
72952;HTU21D;61102;51.956;5.878;2023-04-06T10:10:55;16.48;34.31
72952;HTU21D;61102;51.956;5.878;2023-04-06T10:13:25;16.57;34.44
72952;HTU21D;61102;51.956;5.878;2023-04-06T10:15:53;16.63;33.92
72952;HTU21D;61102;51.956;5.878;2023-04-06T10:18:21;16.59;34.05
72952;HTU21D;61102;51.956;5.878;2023-04-06T10:20:57;16.54;34.42
72952;HTU21D;61102;51.956;5.878;2023-04-06T10:23:37;16.59;34.22
72952;HTU21D;61102;51.956;5.878;2023-04-06T10:26:13;16.61;34.34
72952;HTU21D;61102;51.956;5.878;2023-04-06T10:28:40;16.91;33.78
72952;HTU21D;61102;51.956;5.878;2023-04-06T10:31:06;16.59;34.32
72952;HTU21D;61102;51.956;5.878;2023-04-06T10:33:32;16.46;34.66
72952;HTU21D;61102;51.956;5.878;2023-04-06T10:36:27;16.37;34.93
72952;HTU21D;61102;51.956;5.878;2023-04-06T10:39:00;16.39;34.97
72952;HTU21D;61102;51.956;5.878;2023-04-06T10:41:45;16.49;34.98
72952;HTU21D;61102;51.956;5.878;2023-04-06T10:44:23;16.46;35.15
72952;HTU21D;61102;51.956;5.878;2023-04-06T10:46:54;16.40;35.32
72952;HTU21D;61102;51.956;5.878;2023-04-06T10:49:21;16.33;35.35
72952;HTU21D;61102;51.956;5.878;2023-04-06T10:51:53;16.31;35.78
72952;HTU21D;61102;51.956;5.878;2023-04-06T10:54:21;16.44;35.69
72952;HTU21D;61102;51.956;5.878;2023-04-06T10:56:50;16.70;35.44
72952;HTU21D;61102;51.956;5.878;2023-04-06T10:59:20;17.02;35.16
72952;HTU21D;61102;51.956;5.878;2023-04-06T11:01:48;17.20;34.86
72952;HTU21D;61102;51.956;5.878;2023-04-06T11:04:18;17.40;34.67
72952;HTU21D;61102;51.956;5.878;2023-04-06T11:06:48;17.52;34.69
72952;HTU21D;61102;51.956;5.878;2023-04-06T11:09:28;17.58;34.59
72952;HTU21D;61102;51.956;5.878;2023-04-06T11:11:55;17.50;34.76
72952;HTU21D;61102;51.956;5.878;2023-04-06T11:14:23;17.87;34.19
72952;HTU21D;61102;51.956;5.878;2023-04-06T11:16:50;17.69;34.62
72952;HTU21D;61102;51.956;5.878;2023-04-06T11:19:16;18.04;34.16
72952;HTU21D;61102;51.956;5.878;2023-04-06T11:21:44;17.66;34.83
72952;HTU21D;61102;51.956;5.878;2023-04-06T11:26:48;17.56;35.38
72952;HTU21D;61102;51.956;5.878;2023-04-06T11:29:21;17.59;35.73
72952;HTU21D;61102;51.956;5.878;2023-04-06T11:31:52;17.60;35.85
72952;HTU21D;61102;51.956;5.878;2023-04-06T11:34:24;17.61;36.11
72952;HTU21D;61102;51.956;5.878;2023-04-06T11:36:58;17.55;36.29
72952;HTU21D;61102;51.956;5.878;2023-04-06T11:39:29;17.32;36.86
72952;HTU21D;61102;51.956;5.878;2023-04-06T11:42:00;17.09;37.76
72952;HTU21D;61102;51.956;5.878;2023-04-06T11:44:43;16.87;38.92
72952;HTU21D;61102;51.956;5.878;2023-04-06T11:47:15;16.46;40.22
72952;HTU21D;61102;51.956;5.878;2023-04-06T11:49:43;15.98;41.62
72952;HTU21D;61102;51.956;5.878;2023-04-06T11:52:29;15.69;42.71
72952;HTU21D;61102;51.956;5.878;2023-04-06T11:54:55;15.48;43.35
72952;HTU21D;61102;51.956;5.878;2023-04-06T11:57:24;15.28;43.75
72952;HTU21D;61102;51.956;5.878;2023-04-06T11:59:52;15.17;44.56
72952;HTU21D;61102;51.956;5.878;2023-04-06T12:02:19;15.15;44.96
72952;HTU21D;61102;51.956;5.878;2023-04-06T12:04:45;15.01;45.67
72952;HTU21D;61102;51.956;5.878;2023-04-06T12:07:11;14.93;46.06
72952;HTU21D;61102;51.956;5.878;2023-04-06T12:09:37;14.86;46.38
72952;HTU21D;61102;51.956;5.878;2023-04-06T12:12:04;14.75;46.55
72952;HTU21D;61102;51.956;5.878;2023-04-06T12:14:30;14.59;47.14
72952;HTU21D;61102;51.956;5.878;2023-04-06T12:16:57;14.44;47.60
72952;HTU21D;61102;51.956;5.878;2023-04-06T12:19:24;14.32;48.23
72952;HTU21D;61102;51.956;5.878;2023-04-06T12:21:54;14.19;49.30
72952;HTU21D;61102;51.956;5.878;2023-04-06T12:24:21;14.03;49.56
72952;HTU21D;61102;51.956;5.878;2023-04-06T12:26:47;13.83;49.96
72952;HTU21D;61102;51.956;5.878;2023-04-06T12:29:13;13.68;50.45
72952;HTU21D;61102;51.956;5.878;2023-04-06T12:31:39;13.59;50.98
72952;HTU21D;61102;51.956;5.878;2023-04-06T12:34:06;13.54;51.34
72952;HTU21D;61102;51.956;5.878;2023-04-06T12:36:33;13.41;51.46
72952;HTU21D;61102;51.956;5.878;2023-04-06T12:38:59;13.26;51.83
72952;HTU21D;61102;51.956;5.878;2023-04-06T12:41:29;13.11;52.31
72952;HTU21D;61102;51.956;5.878;2023-04-06T12:43:55;12.97;52.98
72952;HTU21D;61102;51.956;5.878;2023-04-06T12:46:22;12.89;53.23
72952;HTU21D;61102;51.956;5.878;2023-04-06T12:48:48;12.91;53.33
72952;HTU21D;61102;51.956;5.878;2023-04-06T12:51:15;12.92;53.85
72952;HTU21D;61102;51.956;5.878;2023-04-06T12:53:41;12.97;54.08
72952;HTU21D;61102;51.956;5.878;2023-04-06T12:56:16;13.03;54.44
72952;HTU21D;61102;51.956;5.878;2023-04-06T12:58:43;12.99;54.49
72952;HTU21D;61102;51.956;5.878;2023-04-06T13:01:10;12.89;54.87
72952;HTU21D;61102;51.956;5.878;2023-04-06T13:03:41;12.80;55.05
72952;HTU21D;61102;51.956;5.878;2023-04-06T13:06:07;12.62;55.48
72952;HTU21D;61102;51.956;5.878;2023-04-06T13:08:38;12.48;55.95
72952;HTU21D;61102;51.956;5.878;2023-04-06T13:11:04;12.48;56.54
72952;HTU21D;61102;51.956;5.878;2023-04-06T13:13:31;12.48;56.38
72952;HTU21D;61102;51.956;5.878;2023-04-06T13:16:08;12.46;57.07
72952;HTU21D;61102;51.956;5.878;2023-04-06T13:18:35;12.38;56.97
72952;HTU21D;61102;51.956;5.878;2023-04-06T13:21:05;12.23;57.14
72952;HTU21D;61102;51.956;5.878;2023-04-06T13:23:31;12.25;57.31
72952;HTU21D;61102;51.956;5.878;2023-04-06T13:26:07;12.25;58.29
72952;HTU21D;61102;51.956;5.878;2023-04-06T13:28:35;12.19;58.09
72952;HTU21D;61102;51.956;5.878;2023-04-06T13:31:03;12.15;57.96
72952;HTU21D;61102;51.956;5.878;2023-04-06T13:33:29;12.19;58.44
72952;HTU21D;61102;51.956;5.878;2023-04-06T13:35:56;12.20;58.45
72952;HTU21D;61102;51.956;5.878;2023-04-06T13:38:22;12.19;58.93
72952;HTU21D;61102;51.956;5.878;2023-04-06T13:40:50;12.12;58.99
72952;HTU21D;61102;51.956;5.878;2023-04-06T13:43:16;12.08;59.19
72952;HTU21D;61102;51.956;5.878;2023-04-06T13:45:52;12.05;59.74
72952;HTU21D;61102;51.956;5.878;2023-04-06T13:48:20;12.10;59.55
72952;HTU21D;61102;51.956;5.878;2023-04-06T13:50:46;12.13;59.52
72952;HTU21D;61102;51.956;5.878;2023-04-06T13:53:13;12.15;59.92
72952;HTU21D;61102;51.956;5.878;2023-04-06T13:55:39;12.18;59.78
72952;HTU21D;61102;51.956;5.878;2023-04-06T13:58:05;12.20;59.86
72952;HTU21D;61102;51.956;5.878;2023-04-06T14:00:32;12.27;59.88
72952;HTU21D;61102;51.956;5.878;2023-04-06T14:02:58;12.28;59.88
72952;HTU21D;61102;51.956;5.878;2023-04-06T14:05:24;12.33;59.97
72952;HTU21D;61102;51.956;5.878;2023-04-06T14:07:50;12.34;59.96
72952;HTU21D;61102;51.956;5.878;2023-04-06T14:10:16;12.32;60.06
72952;HTU21D;61102;51.956;5.878;2023-04-06T14:12:43;12.28;60.14
72952;HTU21D;61102;51.956;5.878;2023-04-06T14:15:12;12.26;60.44
72952;HTU21D;61102;51.956;5.878;2023-04-06T14:17:38;12.19;60.39
72952;HTU21D;61102;51.956;5.878;2023-04-06T14:20:05;12.21;60.26
72952;HTU21D;61102;51.956;5.878;2023-04-06T14:22:32;12.31;59.97
72952;HTU21D;61102;51.956;5.878;2023-04-06T14:24:58;12.28;60.55
72952;HTU21D;61102;51.956;5.878;2023-04-06T14:27:24;12.21;60.75
72952;HTU21D;61102;51.956;5.878;2023-04-06T14:29:51;12.18;60.60
72952;HTU21D;61102;51.956;5.878;2023-04-06T14:32:19;12.61;59.93
72952;HTU21D;61102;51.956;5.878;2023-04-06T14:34:45;12.75;59.31
72952;HTU21D;61102;51.956;5.878;2023-04-06T14:37:11;12.42;59.83
72952;HTU21D;61102;51.956;5.878;2023-04-06T14:39:37;12.32;60.03
72952;HTU21D;61102;51.956;5.878;2023-04-06T14:42:03;12.29;60.76
72952;HTU21D;61102;51.956;5.878;2023-04-06T14:44:29;12.22;60.88
72952;HTU21D;61102;51.956;5.878;2023-04-06T14:46:58;12.19;61.50
72952;HTU21D;61102;51.956;5.878;2023-04-06T14:49:24;12.12;61.92
72952;HTU21D;61102;51.956;5.878;2023-04-06T14:51:50;12.04;62.38
72952;HTU21D;61102;51.956;5.878;2023-04-06T14:54:17;12.02;62.63
72952;HTU21D;61102;51.956;5.878;2023-04-06T14:56:46;11.98;62.66
72952;HTU21D;61102;51.956;5.878;2023-04-06T14:59:12;11.97;62.80
72952;HTU21D;61102;51.956;5.878;2023-04-06T15:01:38;11.93;63.09
72952;HTU21D;61102;51.956;5.878;2023-04-06T15:04:04;11.92;63.32
72952;HTU21D;61102;51.956;5.878;2023-04-06T15:06:31;11.90;63.49
72952;HTU21D;61102;51.956;5.878;2023-04-06T15:08:57;11.85;63.57
72952;HTU21D;61102;51.956;5.878;2023-04-06T15:11:23;11.78;63.60
72952;HTU21D;61102;51.956;5.878;2023-04-06T15:13:49;11.79;63.75
72952;HTU21D;61102;51.956;5.878;2023-04-06T15:16:16;11.78;63.82
72952;HTU21D;61102;51.956;5.878;2023-04-06T15:18:42;11.77;63.95
72952;HTU21D;61102;51.956;5.878;2023-04-06T15:21:08;11.74;64.02
72952;HTU21D;61102;51.956;5.878;2023-04-06T15:23:34;11.76;64.15
72952;HTU21D;61102;51.956;5.878;2023-04-06T15:26:01;11.72;64.19
72952;HTU21D;61102;51.956;5.878;2023-04-06T15:28:27;11.76;64.18
72952;HTU21D;61102;51.956;5.878;2023-04-06T15:30:54;11.76;64.05
72952;HTU21D;61102;51.956;5.878;2023-04-06T15:33:21;11.78;64.14
72952;HTU21D;61102;51.956;5.878;2023-04-06T15:35:47;11.81;64.20
72952;HTU21D;61102;51.956;5.878;2023-04-06T15:38:14;11.77;64.18
72952;HTU21D;61102;51.956;5.878;2023-04-06T15:40:45;11.74;64.49
72952;HTU21D;61102;51.956;5.878;2023-04-06T15:43:11;11.70;64.42